Time;durP1;ratioP1;P1;durP2;ratioP2;P2;SDS_P1;SDS_P2;PMS_P1;PMS_P2;Temp;Humidity;BMP_temperature;BMP_pressure;BME280_temperature;BME280_humidity;BME280_pressure;Samples;Min_cycle;Max_cycle;Signal;HPM_P1;HPM_P2
2021/11/26 00:00:32;;;;;;;87.57;46.10;;;4.60;99.90;;;;;;5085827;28;20469;-68
2021/11/26 00:02:59;;;;;;;81.17;44.77;;;4.60;99.90;;;;;;5081122;28;20459;-68
2021/11/26 00:05:25;;;;;;;94.63;43.13;;;4.60;99.90;;;;;;5077291;28;20460;-68
2021/11/26 00:07:53;;;;;;;86.53;44.60;;;4.60;99.90;;;;;;5082845;28;20461;-68
2021/11/26 00:10:20;;;;;;;89.87;44.80;;;4.70;99.90;;;;;;5079961;28;20471;-68
2021/11/26 00:12:54;;;;;;;79.13;41.97;;;4.60;99.90;;;;;;5081637;28;20508;-68
2021/11/26 00:15:35;;;;;;;97.43;47.00;;;4.60;99.90;;;;;;5072543;28;20505;-68
2021/11/26 00:18:05;;;;;;;78.97;43.87;;;4.70;99.90;;;;;;5079945;28;20496;-68
2021/11/26 00:20:33;;;;;;;71.90;41.77;;;4.70;99.90;;;;;;5080204;28;20466;-68
2021/11/26 00:23:00;;;;;;;76.23;42.80;;;4.60;99.90;;;;;;5085787;28;20512;-68
2021/11/26 00:25:27;;;;;;;79.90;40.60;;;4.40;99.90;;;;;;5083989;28;20474;-68
2021/11/26 00:27:54;;;;;;;81.43;44.53;;;4.50;99.90;;;;;;5083778;28;20485;-68
2021/11/26 00:30:23;;;;;;;61.97;42.27;;;4.50;99.90;;;;;;5079131;28;20469;-68
2021/11/26 00:32:50;;;;;;;86.17;44.67;;;4.50;99.90;;;;;;5084245;28;20458;-68
2021/11/26 00:35:17;;;;;;;66.20;41.20;;;4.50;99.90;;;;;;5073106;28;20459;-68
2021/11/26 00:37:44;;;;;;;73.10;43.00;;;4.50;99.90;;;;;;5073669;28;20489;-68
2021/11/26 00:40:12;;;;;;;82.97;45.40;;;4.50;99.90;;;;;;5073072;28;20447;-68
2021/11/26 00:42:41;;;;;;;72.13;42.33;;;4.50;99.90;;;;;;5073025;28;20972;-68
2021/11/26 00:45:09;;;;;;;83.33;41.63;;;4.60;99.90;;;;;;5073049;28;20521;-68
2021/11/26 00:47:40;;;;;;;76.50;41.80;;;4.60;99.90;;;;;;5072894;28;20470;-68
2021/11/26 00:50:08;;;;;;;80.03;44.13;;;4.50;99.90;;;;;;5073425;28;20654;-68
2021/11/26 00:52:35;;;;;;;64.47;42.87;;;4.60;99.90;;;;;;5073400;28;20454;-68
2021/11/26 00:55:02;;;;;;;60.17;42.37;;;4.50;99.90;;;;;;5072595;28;20450;-68
2021/11/26 00:57:29;;;;;;;69.57;41.40;;;4.40;99.90;;;;;;5072772;28;20479;-68
2021/11/26 00:59:55;;;;;;;60.10;41.00;;;4.30;99.90;;;;;;5072658;28;20462;-69
2021/11/26 01:02:22;;;;;;;74.87;42.47;;;4.20;99.90;;;;;;5072889;28;20504;-68
2021/11/26 01:04:50;;;;;;;66.07;40.70;;;4.10;99.90;;;;;;5072768;28;20446;-68
2021/11/26 01:07:18;;;;;;;59.63;41.43;;;4.00;99.90;;;;;;5073537;28;20451;-68
2021/11/26 01:13:08;;;;;;;68.30;40.90;;;3.80;99.90;;;;;;5073617;28;20793;-68
2021/11/26 01:15:36;;;;;;;56.70;39.87;;;3.80;99.90;;;;;;5072191;28;20807;-68
2021/11/26 01:18:03;;;;;;;61.83;40.73;;;3.70;99.90;;;;;;5072426;28;20482;-68
2021/11/26 01:20:33;;;;;;;63.20;41.33;;;3.60;99.90;;;;;;5072320;28;20454;-68
2021/11/26 01:23:01;;;;;;;60.10;40.63;;;3.60;99.90;;;;;;5072191;28;20551;-68
2021/11/26 01:25:29;;;;;;;62.10;40.50;;;3.70;99.90;;;;;;5072287;28;20454;-68
2021/11/26 01:27:56;;;;;;;57.93;41.73;;;3.70;99.90;;;;;;5072924;28;20455;-68
2021/11/26 01:30:27;;;;;;;62.63;39.27;;;3.70;99.90;;;;;;5072623;28;20454;-68
2021/11/26 01:32:56;;;;;;;62.97;38.93;;;3.70;99.90;;;;;;5071302;28;20466;-68
2021/11/26 01:35:23;;;;;;;67.57;38.33;;;3.70;99.90;;;;;;5076537;28;20453;-68
2021/11/26 01:37:52;;;;;;;69.47;41.60;;;3.70;99.90;;;;;;5080834;28;20496;-68
2021/11/26 01:40:20;;;;;;;51.97;36.10;;;3.70;99.90;;;;;;5073219;28;20455;-68
2021/11/26 01:42:49;;;;;;;52.43;40.07;;;3.70;99.90;;;;;;5082726;28;20450;-68
2021/11/26 01:45:16;;;;;;;52.63;38.90;;;3.70;99.90;;;;;;5082180;28;20462;-68
2021/11/26 01:47:43;;;;;;;57.17;40.80;;;3.50;99.90;;;;;;5084768;28;20462;-68
2021/11/26 01:50:12;;;;;;;63.20;37.77;;;3.50;99.90;;;;;;5076895;28;20447;-68
2021/11/26 01:52:40;;;;;;;58.20;38.20;;;3.40;99.90;;;;;;5076812;28;20469;-68
2021/11/26 01:55:10;;;;;;;59.23;38.93;;;3.40;99.90;;;;;;5079879;28;20473;-68
2021/11/26 01:57:37;;;;;;;52.07;38.60;;;3.40;99.90;;;;;;5081241;28;20497;-68
2021/11/26 02:00:08;;;;;;;59.23;39.37;;;3.40;99.90;;;;;;5079667;28;20492;-68
2021/11/26 02:02:35;;;;;;;53.70;38.37;;;3.40;99.90;;;;;;5083722;28;20775;-67
2021/11/26 02:05:03;;;;;;;48.83;38.43;;;3.40;99.90;;;;;;5081295;28;20451;-68
2021/11/26 02:07:30;;;;;;;47.77;37.27;;;3.50;99.90;;;;;;5077342;28;20668;-68
2021/11/26 02:09:57;;;;;;;52.97;38.87;;;3.50;99.90;;;;;;5083982;28;20841;-68
2021/11/26 02:12:25;;;;;;;43.40;35.93;;;3.60;99.90;;;;;;5080139;28;20987;-67
2021/11/26 02:14:52;;;;;;;52.93;36.70;;;3.60;99.90;;;;;;5080839;28;20457;-68
2021/11/26 02:17:19;;;;;;;49.97;35.70;;;3.60;99.90;;;;;;5079161;28;20994;-68
2021/11/26 02:19:46;;;;;;;51.23;35.53;;;3.50;99.90;;;;;;5075828;28;20745;-67
2021/11/26 02:22:15;;;;;;;49.10;37.30;;;3.60;99.90;;;;;;5082165;28;20549;-68
2021/11/26 02:24:42;;;;;;;55.30;37.60;;;3.70;99.90;;;;;;5075684;28;20891;-68
2021/11/26 02:27:09;;;;;;;45.83;34.77;;;3.70;99.90;;;;;;5081152;28;20461;-67
2021/11/26 02:29:37;;;;;;;53.90;35.97;;;3.60;99.90;;;;;;5074040;28;20893;-67
2021/11/26 02:32:04;;;;;;;53.13;35.07;;;3.70;99.90;;;;;;5083412;28;21026;-67
2021/11/26 02:34:31;;;;;;;46.93;34.67;;;3.80;99.90;;;;;;5081243;28;20762;-68
2021/11/26 02:36:58;;;;;;;38.97;34.87;;;3.80;99.90;;;;;;5076814;28;20466;-67
2021/11/26 02:39:26;;;;;;;47.93;39.70;;;3.90;99.90;;;;;;5076374;28;20487;-67
2021/11/26 02:41:53;;;;;;;52.97;42.77;;;3.90;99.90;;;;;;5082024;28;20455;-67
2021/11/26 02:44:21;;;;;;;45.83;40.13;;;3.90;99.90;;;;;;5082948;28;20477;-68
2021/11/26 02:46:48;;;;;;;49.63;42.90;;;3.90;99.90;;;;;;5080006;28;20980;-68
2021/11/26 02:49:17;;;;;;;50.43;41.80;;;3.90;99.90;;;;;;5081074;28;20451;-67
2021/11/26 02:51:44;;;;;;;55.03;43.70;;;3.90;99.90;;;;;;5081441;28;20458;-68
2021/11/26 02:54:11;;;;;;;47.27;42.37;;;4.00;99.90;;;;;;5078452;28;20483;-67
2021/11/26 02:56:39;;;;;;;62.50;45.70;;;3.90;99.90;;;;;;5078731;28;20455;-67
2021/11/26 02:59:05;;;;;;;52.73;45.40;;;4.00;99.90;;;;;;5075286;28;20482;-68
2021/11/26 03:01:32;;;;;;;51.87;44.80;;;4.00;99.90;;;;;;5077303;28;20976;-67
2021/11/26 03:03:59;;;;;;;62.57;47.00;;;4.00;99.90;;;;;;5080320;28;20473;-67
2021/11/26 03:06:26;;;;;;;69.57;46.47;;;4.00;99.90;;;;;;5081054;28;20461;-68
2021/11/26 03:08:53;;;;;;;59.47;45.37;;;4.10;99.90;;;;;;5082397;28;20476;-67
2021/11/26 03:11:20;;;;;;;56.13;48.67;;;4.10;99.90;;;;;;5078860;28;20473;-67
2021/11/26 03:13:48;;;;;;;57.27;46.00;;;4.10;99.90;;;;;;5080187;28;20697;-68
2021/11/26 03:16:15;;;;;;;50.27;45.17;;;4.10;99.90;;;;;;5082335;28;20484;-67
2021/11/26 03:18:42;;;;;;;49.80;44.60;;;4.10;99.90;;;;;;5089617;28;20497;-68
2021/11/26 03:21:08;;;;;;;53.40;47.60;;;4.10;99.90;;;;;;5078298;28;20458;-67
2021/11/26 03:23:35;;;;;;;54.80;44.00;;;4.10;99.90;;;;;;5081302;28;20458;-69
2021/11/26 03:26:02;;;;;;;50.30;44.83;;;4.10;99.90;;;;;;5079271;28;20481;-67
2021/11/26 03:28:29;;;;;;;56.43;45.90;;;4.20;99.90;;;;;;5074489;28;20462;-68
2021/11/26 03:30:57;;;;;;;50.27;44.83;;;4.20;99.90;;;;;;5077359;28;20554;-68
2021/11/26 03:33:24;;;;;;;63.20;45.47;;;4.10;99.90;;;;;;5083574;28;20987;-68
2021/11/26 03:35:51;;;;;;;55.77;47.47;;;4.20;99.90;;;;;;5077323;28;20483;-67
2021/11/26 03:38:18;;;;;;;66.70;47.30;;;4.20;99.90;;;;;;5077041;28;20482;-68
2021/11/26 03:40:45;;;;;;;46.83;41.70;;;4.20;99.90;;;;;;5080451;28;20466;-68
2021/11/26 03:43:12;;;;;;;52.17;43.87;;;4.20;99.90;;;;;;5077421;28;20498;-68
2021/11/26 03:45:40;;;;;;;55.80;42.87;;;4.10;99.90;;;;;;5076992;28;20474;-68
2021/11/26 03:48:08;;;;;;;49.53;44.13;;;4.20;99.90;;;;;;5074400;28;20470;-68
2021/11/26 03:50:35;;;;;;;48.53;41.70;;;4.20;99.90;;;;;;5075919;28;20469;-68
2021/11/26 03:53:03;;;;;;;45.70;40.87;;;4.20;99.90;;;;;;5078002;28;20494;-68
2021/11/26 03:55:30;;;;;;;56.77;44.00;;;4.10;99.90;;;;;;5077338;28;20483;-73
2021/11/26 03:57:59;;;;;;;48.57;41.00;;;4.10;99.90;;;;;;5080977;28;20485;-70
2021/11/26 04:00:26;;;;;;;47.57;40.80;;;4.20;99.90;;;;;;5085078;28;20461;-68
2021/11/26 04:02:53;;;;;;;48.77;42.90;;;4.10;99.90;;;;;;5086682;28;20557;-68
2021/11/26 04:05:21;;;;;;;72.43;43.17;;;4.20;99.90;;;;;;5077460;28;20493;-67
2021/11/26 04:07:49;;;;;;;59.47;47.40;;;4.20;99.90;;;;;;5083421;28;20868;-68
2021/11/26 04:10:17;;;;;;;57.53;48.63;;;4.30;99.90;;;;;;5083566;28;20507;-67
2021/11/26 04:12:47;;;;;;;57.23;51.37;;;4.30;99.90;;;;;;5079457;28;20982;-67
2021/11/26 04:15:16;;;;;;;66.90;55.20;;;4.30;99.90;;;;;;5086330;28;20516;-68
2021/11/26 04:17:45;;;;;;;59.13;52.17;;;4.40;99.90;;;;;;5089832;28;21371;-68
2021/11/26 04:20:15;;;;;;;57.63;52.43;;;4.20;99.90;;;;;;5081838;28;20463;-68
2021/11/26 04:22:44;;;;;;;55.90;50.90;;;4.40;99.90;;;;;;5081737;28;20457;-67
2021/11/26 04:25:14;;;;;;;58.10;52.17;;;4.40;99.90;;;;;;5080997;28;20463;-68
2021/11/26 04:27:41;;;;;;;58.50;52.47;;;4.40;99.90;;;;;;5084619;28;20805;-68
2021/11/26 04:30:11;;;;;;;57.80;50.80;;;4.30;99.90;;;;;;5075904;28;20519;-67
2021/11/26 04:32:38;;;;;;;59.23;53.27;;;4.40;99.90;;;;;;5080054;28;21430;-68
2021/11/26 04:35:07;;;;;;;58.23;51.97;;;4.50;99.90;;;;;;5081969;28;20502;-67
2021/11/26 04:37:33;;;;;;;57.17;51.13;;;4.40;99.90;;;;;;5082330;28;20465;-67
2021/11/26 04:40:03;;;;;;;73.80;52.07;;;4.40;99.90;;;;;;5078336;28;20491;-67
2021/11/26 04:42:30;;;;;;;56.90;51.20;;;4.30;99.90;;;;;;5081369;28;20455;-68
2021/11/26 04:44:57;;;;;;;57.70;51.87;;;4.50;99.90;;;;;;5084320;28;20467;-68
2021/11/26 04:47:24;;;;;;;56.60;50.93;;;4.40;99.90;;;;;;5085882;28;20457;-68
2021/11/26 04:49:51;;;;;;;60.37;48.77;;;4.40;99.90;;;;;;5080913;28;20462;-68
2021/11/26 04:52:17;;;;;;;57.60;52.20;;;4.50;99.90;;;;;;5075441;28;20462;-67
2021/11/26 04:54:44;;;;;;;57.03;51.50;;;4.60;99.90;;;;;;5081096;28;20978;-67
2021/11/26 04:57:12;;;;;;;56.00;50.50;;;4.60;99.90;;;;;;5084898;28;20474;-68
2021/11/26 04:59:40;;;;;;;56.13;50.10;;;4.60;99.90;;;;;;5081209;28;20489;-70
2021/11/26 05:02:07;;;;;;;55.47;49.77;;;4.60;99.90;;;;;;5080381;28;20467;-68
2021/11/26 05:04:34;;;;;;;54.00;48.67;;;4.60;99.90;;;;;;5087651;28;20466;-68
2021/11/26 05:07:02;;;;;;;54.67;48.77;;;4.50;99.90;;;;;;5079269;28;20472;-67
2021/11/26 05:09:29;;;;;;;54.93;49.27;;;4.50;99.90;;;;;;5081817;28;21063;-68
2021/11/26 05:11:56;;;;;;;53.80;48.50;;;4.50;99.90;;;;;;5084753;28;20880;-67
2021/11/26 05:14:25;;;;;;;54.90;49.27;;;4.40;99.90;;;;;;5084908;28;20550;-68
2021/11/26 05:16:53;;;;;;;49.77;45.30;;;4.50;99.90;;;;;;5088582;28;20550;-71
2021/11/26 05:19:20;;;;;;;54.60;48.80;;;4.50;99.90;;;;;;5078881;28;20479;-69
2021/11/26 05:21:47;;;;;;;54.63;49.60;;;4.40;99.90;;;;;;5080336;28;20450;-68
2021/11/26 05:24:14;;;;;;;53.97;48.70;;;4.40;99.90;;;;;;5083640;28;20465;-67
2021/11/26 05:26:41;;;;;;;54.80;49.07;;;4.50;99.90;;;;;;5082973;28;20468;-67
2021/11/26 05:29:09;;;;;;;53.97;48.77;;;4.50;99.90;;;;;;5084290;28;20457;-67
2021/11/26 05:31:38;;;;;;;53.43;47.33;;;4.50;99.90;;;;;;5080371;28;20512;-71
2021/11/26 05:34:05;;;;;;;53.33;48.23;;;4.50;99.90;;;;;;5079188;28;20483;-70
2021/11/26 05:36:32;;;;;;;51.57;46.43;;;4.40;99.90;;;;;;5079445;28;20839;-70
2021/11/26 05:38:59;;;;;;;51.67;46.50;;;4.40;99.90;;;;;;5077930;28;20489;-67
2021/11/26 05:41:26;;;;;;;50.03;45.33;;;4.50;99.90;;;;;;5085753;28;20469;-71
2021/11/26 05:43:53;;;;;;;46.83;42.43;;;4.40;99.90;;;;;;5076643;28;20498;-70
2021/11/26 05:46:20;;;;;;;44.30;40.57;;;4.40;99.90;;;;;;5080303;28;20459;-70
2021/11/26 05:48:48;;;;;;;48.03;42.73;;;4.40;99.90;;;;;;5079027;28;20473;-71
2021/11/26 05:51:15;;;;;;;47.40;42.90;;;4.30;99.90;;;;;;5077335;28;20481;-70
2021/11/26 05:53:42;;;;;;;50.60;45.03;;;4.30;99.90;;;;;;5081070;28;20826;-68
2021/11/26 05:56:09;;;;;;;47.80;43.20;;;4.40;99.90;;;;;;5077684;28;20465;-69
2021/11/26 05:58:36;;;;;;;49.03;43.93;;;4.20;99.90;;;;;;5078696;28;20497;-70
2021/11/26 06:01:03;;;;;;;49.17;44.23;;;4.40;99.90;;;;;;5083164;28;20465;-69
2021/11/26 06:03:30;;;;;;;46.43;41.33;;;4.40;99.90;;;;;;5079854;28;20474;-69
2021/11/26 06:05:58;;;;;;;48.10;43.40;;;4.40;99.90;;;;;;5076163;28;20467;-71
2021/11/26 06:08:27;;;;;;;49.33;44.23;;;4.40;99.90;;;;;;5079754;28;20968;-71
2021/11/26 06:10:54;;;;;;;50.93;46.20;;;4.40;99.90;;;;;;5084693;28;20458;-68
2021/11/26 06:13:21;;;;;;;51.40;46.20;;;4.40;99.90;;;;;;5079036;28;20473;-69
2021/11/26 06:15:48;;;;;;;50.13;44.90;;;4.40;99.90;;;;;;5082250;28;20458;-71
2021/11/26 06:18:15;;;;;;;49.53;44.47;;;4.40;99.90;;;;;;5084326;28;20465;-70
2021/11/26 06:20:43;;;;;;;51.13;45.93;;;4.40;99.90;;;;;;5079760;28;20462;-69
2021/11/26 06:23:11;;;;;;;59.03;45.43;;;4.40;99.90;;;;;;5078161;28;20473;-68
2021/11/26 06:25:39;;;;;;;47.10;42.80;;;4.40;99.90;;;;;;5072170;28;20463;-68
2021/11/26 06:28:06;;;;;;;47.73;42.83;;;4.40;99.90;;;;;;5078366;28;20529;-71
2021/11/26 06:30:33;;;;;;;45.60;41.30;;;4.40;99.90;;;;;;5080110;28;20465;-68
2021/11/26 06:33:00;;;;;;;42.97;39.00;;;4.40;99.90;;;;;;5082920;28;21058;-72
2021/11/26 06:35:27;;;;;;;48.90;44.10;;;4.40;99.90;;;;;;5075529;28;20471;-70
2021/11/26 06:37:56;;;;;;;50.97;43.10;;;4.40;99.90;;;;;;5079452;28;21033;-70
2021/11/26 06:40:26;;;;;;;49.30;44.50;;;4.50;99.90;;;;;;5079952;28;21012;-70
2021/11/26 06:42:53;;;;;;;51.23;45.47;;;4.40;99.90;;;;;;5085022;28;21017;-70
2021/11/26 06:45:20;;;;;;;48.97;44.30;;;4.40;99.90;;;;;;5079720;28;20948;-71
2021/11/26 06:47:48;;;;;;;56.03;50.20;;;4.40;99.90;;;;;;5081193;28;20817;-71
2021/11/26 06:50:16;;;;;;;54.20;48.57;;;4.40;99.90;;;;;;5082450;28;20465;-70
2021/11/26 06:52:43;;;;;;;56.37;50.60;;;4.50;99.90;;;;;;5081946;28;20463;-72
2021/11/26 06:55:11;;;;;;;51.20;45.93;;;4.50;99.90;;;;;;5076475;28;21018;-70
2021/11/26 06:57:41;;;;;;;51.23;45.93;;;4.50;99.90;;;;;;5077431;28;20488;-71
2021/11/26 07:00:10;;;;;;;49.30;44.40;;;4.50;99.90;;;;;;5083421;28;20560;-70
2021/11/26 07:02:37;;;;;;;51.67;46.50;;;4.60;99.90;;;;;;5082783;28;20466;-71
2021/11/26 07:05:05;;;;;;;52.17;47.23;;;4.50;99.90;;;;;;5082315;28;20988;-72
2021/11/26 07:07:32;;;;;;;50.37;45.37;;;4.50;99.90;;;;;;5082038;28;21276;-70
2021/11/26 07:09:59;;;;;;;52.03;46.50;;;4.50;99.90;;;;;;5083542;28;20986;-71
2021/11/26 07:12:26;;;;;;;51.27;46.37;;;4.40;99.90;;;;;;5077925;28;20910;-70
2021/11/26 07:14:55;;;;;;;47.80;43.30;;;4.50;99.90;;;;;;5083749;28;20461;-70
2021/11/26 07:17:22;;;;;;;50.23;45.33;;;4.50;99.90;;;;;;5083191;28;20558;-69
2021/11/26 07:19:49;;;;;;;49.20;44.20;;;4.60;99.90;;;;;;5080450;28;20494;-69
2021/11/26 07:22:17;;;;;;;47.60;43.20;;;4.60;99.90;;;;;;5079141;28;20465;-72
2021/11/26 07:24:45;;;;;;;47.57;42.93;;;4.60;99.90;;;;;;5083221;28;20457;-71
2021/11/26 07:27:12;;;;;;;49.33;44.50;;;4.50;99.90;;;;;;5079585;28;20457;-72
2021/11/26 07:29:39;;;;;;;51.30;45.80;;;4.60;99.90;;;;;;5080153;28;20465;-71
2021/11/26 07:32:08;;;;;;;60.27;46.47;;;4.60;99.90;;;;;;5083919;28;20454;-69
2021/11/26 07:34:35;;;;;;;51.37;44.93;;;4.60;99.90;;;;;;5081870;28;20827;-71
2021/11/26 07:37:02;;;;;;;49.33;43.10;;;4.60;99.90;;;;;;5075658;28;20841;-73
2021/11/26 07:39:33;;;;;;;52.80;45.87;;;4.50;99.90;;;;;;5079496;28;20488;-73
2021/11/26 07:42:03;;;;;;;48.33;43.10;;;4.60;99.90;;;;;;5072514;28;20471;-72
2021/11/26 07:44:30;;;;;;;53.43;41.77;;;4.50;99.90;;;;;;5081266;28;20509;-68
2021/11/26 07:46:57;;;;;;;243.57;181.67;;;4.50;99.90;;;;;;5081380;28;20860;-71
2021/11/26 07:49:28;;;;;;;117.67;89.80;;;4.50;99.90;;;;;;5083343;28;20457;-70
2021/11/26 07:51:55;;;;;;;57.50;46.60;;;4.50;99.90;;;;;;5079606;28;20988;-71
2021/11/26 07:54:22;;;;;;;54.83;44.17;;;4.50;99.90;;;;;;5079204;28;20461;-71
2021/11/26 07:56:50;;;;;;;56.43;43.70;;;4.50;99.90;;;;;;5081341;28;20457;-73
2021/11/26 07:59:17;;;;;;;49.23;42.20;;;4.50;99.90;;;;;;5070588;28;20587;-72
2021/11/26 08:01:44;;;;;;;46.73;41.70;;;4.40;99.90;;;;;;5074397;28;20471;-70
2021/11/26 08:04:14;;;;;;;67.50;43.87;;;4.50;99.90;;;;;;5079612;28;20731;-70
2021/11/26 08:06:45;;;;;;;42.60;38.10;;;4.40;99.90;;;;;;5082541;28;20461;-69
2021/11/26 08:09:12;;;;;;;47.17;39.83;;;4.40;99.90;;;;;;5072607;28;20466;-70
2021/11/26 08:11:39;;;;;;;64.47;42.90;;;4.40;99.90;;;;;;5071028;28;20466;-71
2021/11/26 08:14:07;;;;;;;43.27;38.57;;;4.40;99.90;;;;;;5082693;28;20808;-72
2021/11/26 08:16:34;;;;;;;50.10;41.43;;;4.40;99.90;;;;;;5086976;28;20454;-68
2021/11/26 08:19:01;;;;;;;45.60;38.87;;;4.40;99.90;;;;;;5077644;28;20473;-71
2021/11/26 08:21:28;;;;;;;47.13;40.83;;;4.30;99.90;;;;;;5078762;28;20469;-69
2021/11/26 08:23:57;;;;;;;54.53;39.20;;;4.30;99.90;;;;;;5072698;28;20965;-72
2021/11/26 08:26:24;;;;;;;53.73;39.27;;;4.30;99.90;;;;;;5074095;28;20458;-69
2021/11/26 08:28:51;;;;;;;43.33;36.60;;;4.30;99.90;;;;;;5078637;28;20541;-69
2021/11/26 08:31:18;;;;;;;45.73;36.53;;;4.30;99.90;;;;;;5080383;28;20552;-72
2021/11/26 08:33:45;;;;;;;43.43;38.20;;;4.20;99.90;;;;;;5077593;28;20489;-72
2021/11/26 08:36:12;;;;;;;47.67;36.63;;;4.30;99.90;;;;;;5075792;28;20806;-71
2021/11/26 08:38:39;;;;;;;50.97;37.70;;;4.30;99.90;;;;;;5075272;28;20466;-72
2021/11/26 08:41:07;;;;;;;45.27;38.73;;;4.30;99.90;;;;;;5078993;28;20981;-70
2021/11/26 08:43:34;;;;;;;49.30;36.33;;;4.30;99.90;;;;;;5069199;28;20521;-72
2021/11/26 08:46:01;;;;;;;40.43;36.10;;;4.20;99.90;;;;;;5078034;28;20462;-72
2021/11/26 08:48:28;;;;;;;38.10;32.60;;;4.30;99.90;;;;;;5084816;28;20464;-70
2021/11/26 08:50:55;;;;;;;53.10;36.50;;;4.20;99.90;;;;;;5069934;28;20828;-74
2021/11/26 08:53:22;;;;;;;45.77;35.60;;;4.30;99.90;;;;;;5071899;28;20488;-70
2021/11/26 08:55:52;;;;;;;44.33;35.33;;;4.30;99.90;;;;;;5076891;28;20463;-71
2021/11/26 08:58:21;;;;;;;46.07;32.77;;;4.30;99.90;;;;;;5072997;28;20474;-74
2021/11/26 09:00:49;;;;;;;46.80;34.83;;;4.30;99.90;;;;;;5080430;28;20486;-73
2021/11/26 09:03:17;;;;;;;51.27;32.23;;;4.30;99.90;;;;;;5077950;28;20462;-70
2021/11/26 09:05:44;;;;;;;45.80;30.43;;;4.30;99.90;;;;;;5079749;28;20461;-73
2021/11/26 09:08:15;;;;;;;53.13;33.63;;;4.20;99.90;;;;;;5066747;28;20463;-70
2021/11/26 09:10:44;;;;;;;42.13;30.83;;;4.20;99.90;;;;;;5065725;28;20462;-72
2021/11/26 09:13:11;;;;;;;42.67;31.83;;;4.20;99.90;;;;;;5074008;28;20471;-72
2021/11/26 09:15:40;;;;;;;39.70;29.90;;;4.30;99.90;;;;;;5076299;28;20476;-73
2021/11/26 09:18:08;;;;;;;49.17;30.30;;;4.30;99.90;;;;;;5074908;28;20458;-71
2021/11/26 09:20:35;;;;;;;39.57;30.83;;;4.30;99.90;;;;;;5068308;28;20522;-71
2021/11/26 09:23:02;;;;;;;44.53;31.10;;;4.30;99.90;;;;;;5073289;28;20960;-73
2021/11/26 09:25:30;;;;;;;55.33;30.80;;;4.40;99.90;;;;;;5069586;28;20465;-70
2021/11/26 09:27:57;;;;;;;44.03;30.63;;;4.40;99.90;;;;;;5069890;28;20478;-72
2021/11/26 09:30:27;;;;;;;45.93;30.50;;;4.40;99.90;;;;;;5071732;28;20546;-73
2021/11/26 09:32:55;;;;;;;51.17;30.60;;;4.30;99.90;;;;;;5076677;28;20458;-73
2021/11/26 09:35:22;;;;;;;32.60;24.70;;;4.40;99.90;;;;;;5072766;28;20482;-70
2021/11/26 09:37:50;;;;;;;48.57;30.00;;;4.30;99.90;;;;;;5077962;28;20466;-74
2021/11/26 09:40:19;;;;;;;36.77;29.20;;;4.30;99.90;;;;;;5078543;28;20611;-72
2021/11/26 09:42:46;;;;;;;42.30;30.50;;;4.30;99.90;;;;;;5078310;28;20582;-69
2021/11/26 09:45:19;;;;;;;46.10;31.33;;;4.40;99.90;;;;;;5074700;28;20461;-71
2021/11/26 09:47:46;;;;;;;42.00;27.63;;;4.40;99.90;;;;;;5074555;28;20458;-73
2021/11/26 09:50:15;;;;;;;47.77;28.33;;;4.40;99.90;;;;;;5075601;28;20844;-71
2021/11/26 09:52:44;;;;;;;37.37;29.40;;;4.40;99.90;;;;;;5075447;28;20810;-72
2021/11/26 09:55:13;;;;;;;43.93;27.43;;;4.50;99.90;;;;;;5073735;28;21327;-74
2021/11/26 09:57:40;;;;;;;42.50;28.40;;;4.40;99.90;;;;;;5073468;28;20961;-71
2021/11/26 10:00:11;;;;;;;39.70;28.33;;;4.40;99.90;;;;;;5071561;28;20501;-70
2021/11/26 10:02:38;;;;;;;44.63;28.53;;;4.40;99.90;;;;;;5081250;28;20465;-72
2021/11/26 10:05:08;;;;;;;37.70;29.00;;;4.40;99.90;;;;;;5075246;28;21229;-69
2021/11/26 10:07:46;;;;;;;35.03;28.10;;;4.50;99.90;;;;;;5071074;28;20450;-70
2021/11/26 10:10:15;;;;;;;30.07;25.60;;;4.40;99.90;;;;;;5073265;28;20539;-73
2021/11/26 10:12:42;;;;;;;41.27;26.43;;;4.50;99.90;;;;;;5076558;28;20451;-74
2021/11/26 10:15:09;;;;;;;39.47;27.10;;;4.50;99.90;;;;;;5074299;28;20464;-73
2021/11/26 10:17:36;;;;;;;34.53;24.70;;;4.60;99.90;;;;;;5077526;28;20454;-70
2021/11/26 10:20:09;;;;;;;26.37;23.67;;;4.60;99.90;;;;;;5075030;28;21133;-72
2021/11/26 10:22:37;;;;;;;26.50;24.03;;;4.60;99.90;;;;;;5075735;28;20473;-74
2021/11/26 10:25:10;;;;;;;25.97;22.83;;;4.60;99.90;;;;;;5070439;28;20914;-70
2021/11/26 10:27:43;;;;;;;25.17;22.43;;;4.50;99.90;;;;;;5074304;28;20489;-75
2021/11/26 10:30:15;;;;;;;24.60;22.03;;;4.60;99.90;;;;;;5069434;28;20471;-71
2021/11/26 10:32:54;;;;;;;22.07;19.90;;;4.70;99.90;;;;;;5072759;28;20467;-71
2021/11/26 10:35:21;;;;;;;25.47;20.33;;;4.70;99.90;;;;;;5075003;28;20574;-71
2021/11/26 10:37:59;;;;;;;24.00;21.50;;;4.70;99.90;;;;;;5070880;28;20468;-70
2021/11/26 10:40:32;;;;;;;24.03;21.23;;;4.80;99.90;;;;;;5072551;28;20512;-71
2021/11/26 10:43:00;;;;;;;22.97;20.67;;;4.90;99.90;;;;;;5068849;28;20572;-72
2021/11/26 10:45:35;;;;;;;22.03;19.87;;;5.00;99.90;;;;;;5074620;28;20468;-71
2021/11/26 10:50:58;;;;;;;21.80;19.93;;;5.10;99.90;;;;;;5073119;28;20450;-74
2021/11/26 10:59:03;;;;;;;20.80;19.20;;;5.40;99.90;;;;;;5071241;28;20834;-74
2021/11/26 11:01:30;;;;;;;20.73;18.53;;;5.40;99.90;;;;;;5076803;28;20486;-71
2021/11/26 11:04:15;;;;;;;20.50;18.93;;;5.40;99.90;;;;;;5073656;28;20462;-72
2021/11/26 11:06:43;;;;;;;20.40;18.73;;;5.50;99.90;;;;;;5075186;28;20465;-74
2021/11/26 11:09:12;;;;;;;21.37;18.70;;;5.50;99.90;;;;;;5070499;28;20551;-73
2021/11/26 11:11:50;;;;;;;20.00;18.53;;;5.50;99.90;;;;;;5073766;28;20469;-73
2021/11/26 11:14:21;;;;;;;21.20;19.27;;;5.70;99.90;;;;;;5073727;28;20521;-71
2021/11/26 11:16:49;;;;;;;19.97;18.20;;;5.70;99.90;;;;;;5080324;28;20470;-74
2021/11/26 11:19:16;;;;;;;22.63;18.87;;;5.80;99.90;;;;;;5084260;28;20990;-72
2021/11/26 11:21:45;;;;;;;19.80;18.20;;;5.90;99.90;;;;;;5080299;28;20584;-72
2021/11/26 11:24:13;;;;;;;20.10;18.47;;;5.80;99.90;;;;;;5070763;28;20832;-72
2021/11/26 11:26:45;;;;;;;21.73;19.67;;;5.90;99.90;;;;;;5069301;28;20459;-72
2021/11/26 11:29:12;;;;;;;19.63;18.00;;;6.00;99.90;;;;;;5066537;28;20472;-72
2021/11/26 11:31:42;;;;;;;20.83;18.93;;;6.00;99.90;;;;;;5068461;28;20579;-73
2021/11/26 11:34:10;;;;;;;23.73;18.80;;;6.00;99.90;;;;;;5071307;28;20491;-71
2021/11/26 11:36:39;;;;;;;20.27;18.37;;;5.90;99.90;;;;;;5072767;28;20466;-71
2021/11/26 11:39:07;;;;;;;20.10;18.53;;;5.80;99.90;;;;;;5072688;28;20454;-70
2021/11/26 11:41:46;;;;;;;20.60;18.70;;;5.90;99.90;;;;;;5071124;28;20493;-71
2021/11/26 11:44:23;;;;;;;19.83;18.20;;;6.00;99.90;;;;;;5073523;28;20932;-74
2021/11/26 11:46:50;;;;;;;21.70;19.90;;;6.10;99.90;;;;;;5064986;28;20581;-72
2021/11/26 11:49:24;;;;;;;20.60;18.57;;;6.30;99.90;;;;;;5076607;28;20467;-73
2021/11/26 11:51:51;;;;;;;20.40;18.70;;;6.30;99.90;;;;;;5073299;28;20527;-73
2021/11/26 11:54:19;;;;;;;20.67;18.67;;;6.40;99.90;;;;;;5074672;28;20458;-70
2021/11/26 11:56:49;;;;;;;21.27;18.83;;;6.50;99.90;;;;;;5078407;28;20567;-70
2021/11/26 11:59:30;;;;;;;19.07;17.53;;;6.60;99.90;;;;;;5067748;28;20469;-73
2021/11/26 12:01:57;;;;;;;20.70;19.00;;;6.90;99.90;;;;;;5069586;28;20499;-69
2021/11/26 12:04:26;;;;;;;19.90;18.00;;;7.10;99.90;;;;;;5065531;28;20461;-72
2021/11/26 12:06:54;;;;;;;20.27;18.53;;;7.00;99.90;;;;;;5067183;28;20467;-73
2021/11/26 12:09:24;;;;;;;18.90;17.37;;;7.10;99.90;;;;;;5074274;28;20586;-73
2021/11/26 12:12:06;;;;;;;21.83;18.67;;;7.10;99.90;;;;;;5071423;28;20949;-71
2021/11/26 12:14:44;;;;;;;21.57;19.73;;;6.90;99.90;;;;;;5071362;28;20457;-72
2021/11/26 12:17:15;;;;;;;22.47;19.50;;;6.90;99.90;;;;;;5075530;28;20564;-72
2021/11/26 12:19:43;;;;;;;24.60;17.97;;;6.90;99.90;;;;;;5075823;28;20504;-73
2021/11/26 12:22:17;;;;;;;20.10;18.60;;;6.80;99.90;;;;;;5074033;28;20513;-70
2021/11/26 12:24:48;;;;;;;20.77;18.87;;;6.80;99.90;;;;;;5079306;28;20848;-72
2021/11/26 12:27:23;;;;;;;20.00;18.37;;;6.80;99.90;;;;;;5077218;28;20458;-71
2021/11/26 12:29:52;;;;;;;20.43;18.63;;;6.90;99.90;;;;;;5079166;28;20477;-73
2021/11/26 12:32:30;;;;;;;21.17;19.07;;;7.00;99.90;;;;;;5073276;28;20961;-74
2021/11/26 12:35:09;;;;;;;19.00;17.47;;;6.80;99.90;;;;;;5070685;28;20841;-73
2021/11/26 12:37:36;;;;;;;22.80;18.70;;;6.70;99.90;;;;;;5077742;28;20456;-69
2021/11/26 12:40:07;;;;;;;20.13;18.53;;;6.70;99.90;;;;;;5081827;28;20465;-71
2021/11/26 12:42:35;;;;;;;20.60;18.90;;;6.60;99.90;;;;;;5074193;28;20496;-70
2021/11/26 12:45:07;;;;;;;22.67;17.87;;;6.70;99.90;;;;;;5080510;28;21098;-73
2021/11/26 12:47:39;;;;;;;21.23;19.10;;;6.70;99.90;;;;;;5078060;28;20455;-73
2021/11/26 12:52:53;;;;;;;20.67;18.57;;;6.80;99.90;;;;;;5071746;28;20469;-71
2021/11/26 12:55:20;;;;;;;21.50;19.30;;;6.90;99.90;;;;;;5071331;28;20839;-71